sensor_id;sensor_type;location;lat;lon;timestamp;temperature;humidity
51637;DHT22;37713;53.254;6.460;2023-04-24T00:00:02;11.20;99.90
51637;DHT22;37713;53.254;6.460;2023-04-24T00:02:31;11.20;99.90
51637;DHT22;37713;53.254;6.460;2023-04-24T00:04:58;11.20;99.90
51637;DHT22;37713;53.254;6.460;2023-04-24T00:07:29;11.10;99.90
51637;DHT22;37713;53.254;6.460;2023-04-24T00:09:55;11.20;99.90
51637;DHT22;37713;53.254;6.460;2023-04-24T00:12:22;11.20;99.90
51637;DHT22;37713;53.254;6.460;2023-04-24T00:14:47;11.10;99.90
51637;DHT22;37713;53.254;6.460;2023-04-24T00:17:13;11.10;99.90
51637;DHT22;37713;53.254;6.460;2023-04-24T00:19:39;11.10;99.90
51637;DHT22;37713;53.254;6.460;2023-04-24T00:22:06;11.10;99.90
51637;DHT22;37713;53.254;6.460;2023-04-24T00:24:32;11.10;99.90
51637;DHT22;37713;53.254;6.460;2023-04-24T00:26:58;11.00;99.90
51637;DHT22;37713;53.254;6.460;2023-04-24T00:29:25;11.00;99.90
51637;DHT22;37713;53.254;6.460;2023-04-24T00:31:51;11.00;99.90
51637;DHT22;37713;53.254;6.460;2023-04-24T00:34:17;11.00;99.90
51637;DHT22;37713;53.254;6.460;2023-04-24T00:36:43;11.00;99.90
51637;DHT22;37713;53.254;6.460;2023-04-24T00:39:09;11.00;99.90
51637;DHT22;37713;53.254;6.460;2023-04-24T00:41:36;11.00;99.90
51637;DHT22;37713;53.254;6.460;2023-04-24T00:44:02;11.00;99.90
51637;DHT22;37713;53.254;6.460;2023-04-24T00:46:28;11.00;99.90
51637;DHT22;37713;53.254;6.460;2023-04-24T00:48:56;11.00;99.90
51637;DHT22;37713;53.254;6.460;2023-04-24T00:51:22;11.10;99.90
51637;DHT22;37713;53.254;6.460;2023-04-24T00:53:50;11.00;99.90
51637;DHT22;37713;53.254;6.460;2023-04-24T00:56:17;11.10;99.90
51637;DHT22;37713;53.254;6.460;2023-04-24T00:58:43;11.10;99.90
51637;DHT22;37713;53.254;6.460;2023-04-24T01:01:10;11.00;99.90
51637;DHT22;37713;53.254;6.460;2023-04-24T01:03:37;11.00;99.90
51637;DHT22;37713;53.254;6.460;2023-04-24T01:06:04;11.00;99.90
51637;DHT22;37713;53.254;6.460;2023-04-24T01:08:30;11.00;99.90
51637;DHT22;37713;53.254;6.460;2023-04-24T01:10:57;10.90;99.90
51637;DHT22;37713;53.254;6.460;2023-04-24T01:13:23;10.90;99.90
51637;DHT22;37713;53.254;6.460;2023-04-24T01:15:49;10.80;99.90
51637;DHT22;37713;53.254;6.460;2023-04-24T01:18:15;10.80;99.90
51637;DHT22;37713;53.254;6.460;2023-04-24T01:20:42;10.80;99.90
51637;DHT22;37713;53.254;6.460;2023-04-24T01:23:10;10.80;99.90
51637;DHT22;37713;53.254;6.460;2023-04-24T01:25:36;10.80;99.90
51637;DHT22;37713;53.254;6.460;2023-04-24T01:28:02;10.70;99.90
51637;DHT22;37713;53.254;6.460;2023-04-24T01:30:30;10.70;99.90
51637;DHT22;37713;53.254;6.460;2023-04-24T01:32:56;10.70;99.90
51637;DHT22;37713;53.254;6.460;2023-04-24T01:35:24;10.60;99.90
51637;DHT22;37713;53.254;6.460;2023-04-24T01:37:50;10.60;99.90
51637;DHT22;37713;53.254;6.460;2023-04-24T01:40:16;10.60;99.90
51637;DHT22;37713;53.254;6.460;2023-04-24T01:42:42;10.60;99.90
51637;DHT22;37713;53.254;6.460;2023-04-24T01:45:10;10.50;99.90
51637;DHT22;37713;53.254;6.460;2023-04-24T01:47:36;10.50;99.90
51637;DHT22;37713;53.254;6.460;2023-04-24T01:50:04;10.50;99.90
51637;DHT22;37713;53.254;6.460;2023-04-24T01:52:31;10.50;99.90
51637;DHT22;37713;53.254;6.460;2023-04-24T01:55:02;10.50;99.90
51637;DHT22;37713;53.254;6.460;2023-04-24T01:57:30;10.50;99.90
51637;DHT22;37713;53.254;6.460;2023-04-24T01:59:56;10.40;99.90
51637;DHT22;37713;53.254;6.460;2023-04-24T02:02:22;10.50;99.90
51637;DHT22;37713;53.254;6.460;2023-04-24T02:04:50;10.40;99.90
51637;DHT22;37713;53.254;6.460;2023-04-24T02:07:16;10.40;99.90
51637;DHT22;37713;53.254;6.460;2023-04-24T02:09:41;10.40;99.90
51637;DHT22;37713;53.254;6.460;2023-04-24T02:12:07;10.40;99.90
51637;DHT22;37713;53.254;6.460;2023-04-24T02:14:33;10.40;99.90
51637;DHT22;37713;53.254;6.460;2023-04-24T02:16:59;10.40;99.90
51637;DHT22;37713;53.254;6.460;2023-04-24T02:19:26;10.40;99.90
51637;DHT22;37713;53.254;6.460;2023-04-24T02:21:52;10.40;99.90
51637;DHT22;37713;53.254;6.460;2023-04-24T02:24:18;10.40;99.90
51637;DHT22;37713;53.254;6.460;2023-04-24T02:26:43;10.30;99.90
51637;DHT22;37713;53.254;6.460;2023-04-24T02:29:09;10.40;99.90
51637;DHT22;37713;53.254;6.460;2023-04-24T02:31:35;10.30;99.90
51637;DHT22;37713;53.254;6.460;2023-04-24T02:34:00;10.30;99.90
51637;DHT22;37713;53.254;6.460;2023-04-24T02:36:26;10.30;99.90
51637;DHT22;37713;53.254;6.460;2023-04-24T02:38:52;10.30;99.90
51637;DHT22;37713;53.254;6.460;2023-04-24T02:41:18;10.30;99.90
51637;DHT22;37713;53.254;6.460;2023-04-24T02:43:44;10.40;99.90
51637;DHT22;37713;53.254;6.460;2023-04-24T02:46:10;10.40;99.90
51637;DHT22;37713;53.254;6.460;2023-04-24T02:48:35;10.40;99.90
51637;DHT22;37713;53.254;6.460;2023-04-24T02:51:01;10.30;99.90
51637;DHT22;37713;53.254;6.460;2023-04-24T02:53:27;10.30;99.90
51637;DHT22;37713;53.254;6.460;2023-04-24T02:55:55;10.40;99.90
51637;DHT22;37713;53.254;6.460;2023-04-24T02:58:21;10.40;99.90
51637;DHT22;37713;53.254;6.460;2023-04-24T03:00:47;10.40;99.90
51637;DHT22;37713;53.254;6.460;2023-04-24T03:03:13;10.40;99.90
51637;DHT22;37713;53.254;6.460;2023-04-24T03:05:39;10.40;99.90
51637;DHT22;37713;53.254;6.460;2023-04-24T03:08:05;10.40;99.90
51637;DHT22;37713;53.254;6.460;2023-04-24T03:10:31;10.40;99.90
51637;DHT22;37713;53.254;6.460;2023-04-24T03:12:57;10.40;99.90
51637;DHT22;37713;53.254;6.460;2023-04-24T03:15:23;10.40;99.90
51637;DHT22;37713;53.254;6.460;2023-04-24T03:17:49;10.40;99.90
51637;DHT22;37713;53.254;6.460;2023-04-24T03:20:15;10.40;99.90
51637;DHT22;37713;53.254;6.460;2023-04-24T03:22:41;10.40;99.90
51637;DHT22;37713;53.254;6.460;2023-04-24T03:25:07;10.50;99.90
51637;DHT22;37713;53.254;6.460;2023-04-24T03:27:34;10.50;99.90
51637;DHT22;37713;53.254;6.460;2023-04-24T03:30:00;10.40;99.90
51637;DHT22;37713;53.254;6.460;2023-04-24T03:32:27;10.40;99.90
51637;DHT22;37713;53.254;6.460;2023-04-24T03:34:52;10.50;99.90
51637;DHT22;37713;53.254;6.460;2023-04-24T03:37:18;10.50;99.90
51637;DHT22;37713;53.254;6.460;2023-04-24T03:39:44;10.50;99.90
51637;DHT22;37713;53.254;6.460;2023-04-24T03:42:10;10.50;99.90
51637;DHT22;37713;53.254;6.460;2023-04-24T03:44:36;10.50;99.90
51637;DHT22;37713;53.254;6.460;2023-04-24T03:47:02;10.50;99.90
51637;DHT22;37713;53.254;6.460;2023-04-24T03:49:28;10.50;99.90
51637;DHT22;37713;53.254;6.460;2023-04-24T03:51:53;10.50;99.90
51637;DHT22;37713;53.254;6.460;2023-04-24T03:54:20;10.50;99.90
51637;DHT22;37713;53.254;6.460;2023-04-24T03:56:45;10.50;99.90
51637;DHT22;37713;53.254;6.460;2023-04-24T03:59:11;10.50;99.90
51637;DHT22;37713;53.254;6.460;2023-04-24T04:01:37;10.50;99.90
51637;DHT22;37713;53.254;6.460;2023-04-24T04:04:03;10.60;99.90
51637;DHT22;37713;53.254;6.460;2023-04-24T04:06:29;10.60;99.90
51637;DHT22;37713;53.254;6.460;2023-04-24T04:08:58;10.60;99.90
51637;DHT22;37713;53.254;6.460;2023-04-24T04:11:25;10.60;99.90
51637;DHT22;37713;53.254;6.460;2023-04-24T04:13:51;10.60;99.90
51637;DHT22;37713;53.254;6.460;2023-04-24T04:16:16;10.60;99.90
51637;DHT22;37713;53.254;6.460;2023-04-24T04:18:43;10.60;99.90
51637;DHT22;37713;53.254;6.460;2023-04-24T04:21:09;10.60;99.90
51637;DHT22;37713;53.254;6.460;2023-04-24T04:23:35;10.60;99.90
51637;DHT22;37713;53.254;6.460;2023-04-24T04:26:02;10.50;99.90
51637;DHT22;37713;53.254;6.460;2023-04-24T04:28:29;10.50;99.90
51637;DHT22;37713;53.254;6.460;2023-04-24T04:30:57;10.50;99.90
51637;DHT22;37713;53.254;6.460;2023-04-24T04:33:24;10.50;99.90
51637;DHT22;37713;53.254;6.460;2023-04-24T04:35:50;10.50;99.90
51637;DHT22;37713;53.254;6.460;2023-04-24T04:38:22;10.50;99.90
51637;DHT22;37713;53.254;6.460;2023-04-24T04:40:48;10.50;99.90
51637;DHT22;37713;53.254;6.460;2023-04-24T04:43:14;10.50;99.90
51637;DHT22;37713;53.254;6.460;2023-04-24T04:45:43;10.50;99.90
51637;DHT22;37713;53.254;6.460;2023-04-24T04:48:10;10.50;99.90
51637;DHT22;37713;53.254;6.460;2023-04-24T04:50:39;10.50;99.90
51637;DHT22;37713;53.254;6.460;2023-04-24T04:53:04;10.50;99.90
51637;DHT22;37713;53.254;6.460;2023-04-24T04:55:31;10.50;99.90
51637;DHT22;37713;53.254;6.460;2023-04-24T04:57:56;10.40;99.90
51637;DHT22;37713;53.254;6.460;2023-04-24T05:00:23;10.40;99.90
51637;DHT22;37713;53.254;6.460;2023-04-24T05:02:51;10.40;99.90
51637;DHT22;37713;53.254;6.460;2023-04-24T05:05:17;10.30;99.90
51637;DHT22;37713;53.254;6.460;2023-04-24T05:07:44;10.40;99.90
51637;DHT22;37713;53.254;6.460;2023-04-24T05:10:10;10.30;99.90
51637;DHT22;37713;53.254;6.460;2023-04-24T05:12:36;10.30;99.90
51637;DHT22;37713;53.254;6.460;2023-04-24T05:15:02;10.40;99.90
51637;DHT22;37713;53.254;6.460;2023-04-24T05:17:28;10.40;99.90
51637;DHT22;37713;53.254;6.460;2023-04-24T05:19:54;10.40;99.90
51637;DHT22;37713;53.254;6.460;2023-04-24T05:22:20;10.40;99.90
51637;DHT22;37713;53.254;6.460;2023-04-24T05:24:47;10.40;99.90
51637;DHT22;37713;53.254;6.460;2023-04-24T05:27:13;10.30;99.90
51637;DHT22;37713;53.254;6.460;2023-04-24T05:29:39;10.30;99.90
51637;DHT22;37713;53.254;6.460;2023-04-24T05:32:05;10.30;99.90
51637;DHT22;37713;53.254;6.460;2023-04-24T05:34:32;10.20;99.90
51637;DHT22;37713;53.254;6.460;2023-04-24T05:36:57;10.20;99.90
51637;DHT22;37713;53.254;6.460;2023-04-24T05:39:23;10.20;99.90
51637;DHT22;37713;53.254;6.460;2023-04-24T05:41:51;10.20;99.90
51637;DHT22;37713;53.254;6.460;2023-04-24T05:44:16;10.20;99.90
51637;DHT22;37713;53.254;6.460;2023-04-24T05:46:42;10.10;99.90
51637;DHT22;37713;53.254;6.460;2023-04-24T05:49:08;10.30;99.90
51637;DHT22;37713;53.254;6.460;2023-04-24T05:51:34;10.20;99.90
51637;DHT22;37713;53.254;6.460;2023-04-24T05:54:00;10.20;99.90
51637;DHT22;37713;53.254;6.460;2023-04-24T05:56:28;10.20;99.90
51637;DHT22;37713;53.254;6.460;2023-04-24T05:58:54;10.20;99.90
51637;DHT22;37713;53.254;6.460;2023-04-24T06:01:21;10.20;99.90
51637;DHT22;37713;53.254;6.460;2023-04-24T06:03:47;10.20;99.90
51637;DHT22;37713;53.254;6.460;2023-04-24T06:06:13;10.20;99.90
51637;DHT22;37713;53.254;6.460;2023-04-24T06:08:39;10.10;99.90
51637;DHT22;37713;53.254;6.460;2023-04-24T06:11:05;10.10;99.90
51637;DHT22;37713;53.254;6.460;2023-04-24T06:13:30;10.10;99.90
51637;DHT22;37713;53.254;6.460;2023-04-24T06:15:56;10.10;99.90
51637;DHT22;37713;53.254;6.460;2023-04-24T06:18:22;10.10;99.90
51637;DHT22;37713;53.254;6.460;2023-04-24T06:20:48;10.10;99.90
51637;DHT22;37713;53.254;6.460;2023-04-24T06:23:13;10.10;99.90
51637;DHT22;37713;53.254;6.460;2023-04-24T06:25:39;10.20;99.90
51637;DHT22;37713;53.254;6.460;2023-04-24T06:28:05;10.30;99.90
51637;DHT22;37713;53.254;6.460;2023-04-24T06:30:31;10.20;99.90
51637;DHT22;37713;53.254;6.460;2023-04-24T06:32:57;10.20;99.90
51637;DHT22;37713;53.254;6.460;2023-04-24T06:35:23;10.20;99.90
51637;DHT22;37713;53.254;6.460;2023-04-24T06:37:49;10.20;99.90
51637;DHT22;37713;53.254;6.460;2023-04-24T06:40:14;10.20;99.90
51637;DHT22;37713;53.254;6.460;2023-04-24T06:42:40;10.10;99.90
51637;DHT22;37713;53.254;6.460;2023-04-24T06:45:06;10.10;99.90
51637;DHT22;37713;53.254;6.460;2023-04-24T06:47:32;10.20;99.90
51637;DHT22;37713;53.254;6.460;2023-04-24T06:49:58;10.20;99.90
51637;DHT22;37713;53.254;6.460;2023-04-24T06:52:25;10.20;99.90
51637;DHT22;37713;53.254;6.460;2023-04-24T06:54:51;10.20;99.90
51637;DHT22;37713;53.254;6.460;2023-04-24T06:57:17;10.20;99.90
51637;DHT22;37713;53.254;6.460;2023-04-24T06:59:43;10.20;99.90
51637;DHT22;37713;53.254;6.460;2023-04-24T07:02:09;10.20;99.90
51637;DHT22;37713;53.254;6.460;2023-04-24T07:04:35;10.20;99.90
51637;DHT22;37713;53.254;6.460;2023-04-24T07:07:01;10.20;99.90
51637;DHT22;37713;53.254;6.460;2023-04-24T07:09:28;10.20;99.90
51637;DHT22;37713;53.254;6.460;2023-04-24T07:11:54;10.20;99.90
51637;DHT22;37713;53.254;6.460;2023-04-24T07:14:23;10.10;99.90
51637;DHT22;37713;53.254;6.460;2023-04-24T07:16:48;10.10;99.90
51637;DHT22;37713;53.254;6.460;2023-04-24T07:19:14;10.10;99.90
51637;DHT22;37713;53.254;6.460;2023-04-24T07:21:41;10.10;99.90
51637;DHT22;37713;53.254;6.460;2023-04-24T07:24:06;10.10;99.90
51637;DHT22;37713;53.254;6.460;2023-04-24T07:26:36;10.10;99.90
51637;DHT22;37713;53.254;6.460;2023-04-24T07:29:03;10.10;99.90
51637;DHT22;37713;53.254;6.460;2023-04-24T07:31:28;10.00;99.90
51637;DHT22;37713;53.254;6.460;2023-04-24T07:33:54;10.00;99.90
51637;DHT22;37713;53.254;6.460;2023-04-24T07:36:23;10.00;99.90
51637;DHT22;37713;53.254;6.460;2023-04-24T07:38:52;10.00;99.90
51637;DHT22;37713;53.254;6.460;2023-04-24T07:41:18;10.00;99.90
51637;DHT22;37713;53.254;6.460;2023-04-24T07:43:44;10.00;99.90
51637;DHT22;37713;53.254;6.460;2023-04-24T07:46:11;9.90;99.90
51637;DHT22;37713;53.254;6.460;2023-04-24T07:48:37;9.80;99.90
51637;DHT22;37713;53.254;6.460;2023-04-24T07:51:02;9.70;99.90
51637;DHT22;37713;53.254;6.460;2023-04-24T07:53:28;9.70;99.90
51637;DHT22;37713;53.254;6.460;2023-04-24T07:55:56;9.70;99.90
51637;DHT22;37713;53.254;6.460;2023-04-24T07:58:22;9.70;99.90
51637;DHT22;37713;53.254;6.460;2023-04-24T08:00:48;9.70;99.90
51637;DHT22;37713;53.254;6.460;2023-04-24T08:03:14;9.70;99.90
51637;DHT22;37713;53.254;6.460;2023-04-24T08:05:40;9.70;99.90
51637;DHT22;37713;53.254;6.460;2023-04-24T08:08:07;9.70;99.90
51637;DHT22;37713;53.254;6.460;2023-04-24T08:10:33;9.70;99.90
51637;DHT22;37713;53.254;6.460;2023-04-24T08:12:59;9.60;99.90
51637;DHT22;37713;53.254;6.460;2023-04-24T08:15:25;9.60;99.90
51637;DHT22;37713;53.254;6.460;2023-04-24T08:17:51;9.50;99.90
51637;DHT22;37713;53.254;6.460;2023-04-24T08:20:17;9.60;99.90
51637;DHT22;37713;53.254;6.460;2023-04-24T08:22:43;9.60;99.90
51637;DHT22;37713;53.254;6.460;2023-04-24T08:25:10;9.50;99.90
51637;DHT22;37713;53.254;6.460;2023-04-24T08:27:36;9.60;99.90
51637;DHT22;37713;53.254;6.460;2023-04-24T08:30:03;9.60;99.90
51637;DHT22;37713;53.254;6.460;2023-04-24T08:32:29;9.60;99.90
51637;DHT22;37713;53.254;6.460;2023-04-24T08:34:59;9.50;99.90
51637;DHT22;37713;53.254;6.460;2023-04-24T08:37:26;9.50;99.90
51637;DHT22;37713;53.254;6.460;2023-04-24T08:39:52;9.50;99.90
51637;DHT22;37713;53.254;6.460;2023-04-24T08:42:19;9.50;99.90
51637;DHT22;37713;53.254;6.460;2023-04-24T08:44:45;9.40;99.90
51637;DHT22;37713;53.254;6.460;2023-04-24T08:47:12;9.50;99.90
51637;DHT22;37713;53.254;6.460;2023-04-24T08:49:38;9.40;99.90
51637;DHT22;37713;53.254;6.460;2023-04-24T08:52:07;9.40;99.90
51637;DHT22;37713;53.254;6.460;2023-04-24T08:54:36;9.30;99.90
51637;DHT22;37713;53.254;6.460;2023-04-24T08:57:03;9.30;99.90
51637;DHT22;37713;53.254;6.460;2023-04-24T08:59:30;9.20;99.90
51637;DHT22;37713;53.254;6.460;2023-04-24T09:01:56;9.20;99.90
51637;DHT22;37713;53.254;6.460;2023-04-24T09:04:23;9.00;99.90
51637;DHT22;37713;53.254;6.460;2023-04-24T09:06:57;9.10;99.90
51637;DHT22;37713;53.254;6.460;2023-04-24T09:09:23;9.20;99.90
51637;DHT22;37713;53.254;6.460;2023-04-24T09:11:51;9.20;99.90
51637;DHT22;37713;53.254;6.460;2023-04-24T09:14:19;9.20;99.90
51637;DHT22;37713;53.254;6.460;2023-04-24T09:16:46;9.20;99.90
51637;DHT22;37713;53.254;6.460;2023-04-24T09:19:12;9.30;99.90
51637;DHT22;37713;53.254;6.460;2023-04-24T09:21:38;9.20;99.90
51637;DHT22;37713;53.254;6.460;2023-04-24T09:24:07;9.30;99.90
51637;DHT22;37713;53.254;6.460;2023-04-24T09:26:36;9.30;99.90
51637;DHT22;37713;53.254;6.460;2023-04-24T09:29:03;9.40;99.90
51637;DHT22;37713;53.254;6.460;2023-04-24T09:31:30;9.40;99.90
51637;DHT22;37713;53.254;6.460;2023-04-24T09:34:04;9.40;99.90
51637;DHT22;37713;53.254;6.460;2023-04-24T09:36:35;9.40;99.90
51637;DHT22;37713;53.254;6.460;2023-04-24T09:39:11;9.40;99.90
51637;DHT22;37713;53.254;6.460;2023-04-24T09:44:18;9.40;99.90
51637;DHT22;37713;53.254;6.460;2023-04-24T09:46:50;9.30;99.90
51637;DHT22;37713;53.254;6.460;2023-04-24T09:49:16;9.40;99.90
51637;DHT22;37713;53.254;6.460;2023-04-24T09:51:42;9.50;99.90
51637;DHT22;37713;53.254;6.460;2023-04-24T09:56:45;9.80;99.90
51637;DHT22;37713;53.254;6.460;2023-04-24T09:59:13;10.00;99.90
51637;DHT22;37713;53.254;6.460;2023-04-24T10:01:39;10.20;99.90
51637;DHT22;37713;53.254;6.460;2023-04-24T10:04:15;10.40;99.90
51637;DHT22;37713;53.254;6.460;2023-04-24T10:06:43;10.50;99.90
51637;DHT22;37713;53.254;6.460;2023-04-24T10:09:08;10.60;99.90
51637;DHT22;37713;53.254;6.460;2023-04-24T10:11:37;10.70;99.90
51637;DHT22;37713;53.254;6.460;2023-04-24T10:14:03;10.70;99.90
51637;DHT22;37713;53.254;6.460;2023-04-24T10:16:29;10.80;99.90
51637;DHT22;37713;53.254;6.460;2023-04-24T10:18:59;10.90;99.90
51637;DHT22;37713;53.254;6.460;2023-04-24T10:21:26;10.90;99.90
51637;DHT22;37713;53.254;6.460;2023-04-24T10:23:53;11.10;99.90
51637;DHT22;37713;53.254;6.460;2023-04-24T10:26:19;11.10;99.90
51637;DHT22;37713;53.254;6.460;2023-04-24T10:28:46;11.20;99.90
51637;DHT22;37713;53.254;6.460;2023-04-24T10:31:13;11.10;99.90
51637;DHT22;37713;53.254;6.460;2023-04-24T10:33:43;11.10;99.90
51637;DHT22;37713;53.254;6.460;2023-04-24T10:36:10;11.00;99.90
51637;DHT22;37713;53.254;6.460;2023-04-24T10:38:38;11.10;99.90
51637;DHT22;37713;53.254;6.460;2023-04-24T10:41:10;11.10;99.90
51637;DHT22;37713;53.254;6.460;2023-04-24T10:43:40;11.00;99.90
51637;DHT22;37713;53.254;6.460;2023-04-24T10:46:06;11.00;99.90
51637;DHT22;37713;53.254;6.460;2023-04-24T10:48:33;11.00;99.90
51637;DHT22;37713;53.254;6.460;2023-04-24T10:50:59;11.10;99.90
51637;DHT22;37713;53.254;6.460;2023-04-24T10:53:29;11.00;99.90
51637;DHT22;37713;53.254;6.460;2023-04-24T10:56:08;11.10;99.90
51637;DHT22;37713;53.254;6.460;2023-04-24T10:58:42;11.20;99.90
51637;DHT22;37713;53.254;6.460;2023-04-24T11:01:38;11.20;99.90
51637;DHT22;37713;53.254;6.460;2023-04-24T11:04:04;11.30;99.90
51637;DHT22;37713;53.254;6.460;2023-04-24T11:09:05;11.30;99.90
51637;DHT22;37713;53.254;6.460;2023-04-24T11:11:32;11.20;99.90
51637;DHT22;37713;53.254;6.460;2023-04-24T11:16:53;10.90;99.90
51637;DHT22;37713;53.254;6.460;2023-04-24T11:19:24;10.70;99.90
51637;DHT22;37713;53.254;6.460;2023-04-24T11:22:00;10.70;99.90
51637;DHT22;37713;53.254;6.460;2023-04-24T11:24:38;10.60;99.90
51637;DHT22;37713;53.254;6.460;2023-04-24T11:32:35;10.50;99.90
51637;DHT22;37713;53.254;6.460;2023-04-24T11:35:12;10.40;99.90
51637;DHT22;37713;53.254;6.460;2023-04-24T11:37:41;10.30;99.90
51637;DHT22;37713;53.254;6.460;2023-04-24T11:40:09;10.20;99.90
51637;DHT22;37713;53.254;6.460;2023-04-24T11:42:36;10.30;99.90
51637;DHT22;37713;53.254;6.460;2023-04-24T11:45:02;10.30;99.90
51637;DHT22;37713;53.254;6.460;2023-04-24T11:47:32;10.30;99.90
51637;DHT22;37713;53.254;6.460;2023-04-24T11:49:59;10.30;99.90
51637;DHT22;37713;53.254;6.460;2023-04-24T11:52:26;10.30;99.90
51637;DHT22;37713;53.254;6.460;2023-04-24T11:54:52;10.40;99.90
51637;DHT22;37713;53.254;6.460;2023-04-24T11:57:22;10.40;99.90
51637;DHT22;37713;53.254;6.460;2023-04-24T11:59:49;10.20;99.90
51637;DHT22;37713;53.254;6.460;2023-04-24T12:02:25;10.20;99.90
51637;DHT22;37713;53.254;6.460;2023-04-24T12:04:55;10.00;99.90
51637;DHT22;37713;53.254;6.460;2023-04-24T12:07:23;10.10;99.90
51637;DHT22;37713;53.254;6.460;2023-04-24T12:09:57;10.10;99.90
51637;DHT22;37713;53.254;6.460;2023-04-24T12:12:28;10.20;99.90
51637;DHT22;37713;53.254;6.460;2023-04-24T12:14:56;10.20;99.90
51637;DHT22;37713;53.254;6.460;2023-04-24T12:17:29;10.20;99.90
51637;DHT22;37713;53.254;6.460;2023-04-24T12:20:04;10.20;99.90
51637;DHT22;37713;53.254;6.460;2023-04-24T12:22:49;10.30;99.90
51637;DHT22;37713;53.254;6.460;2023-04-24T12:25:17;10.30;99.90
51637;DHT22;37713;53.254;6.460;2023-04-24T12:27:47;10.50;99.90
51637;DHT22;37713;53.254;6.460;2023-04-24T12:30:17;10.60;99.90
51637;DHT22;37713;53.254;6.460;2023-04-24T12:32:48;10.80;99.90
51637;DHT22;37713;53.254;6.460;2023-04-24T12:35:19;10.90;99.90
51637;DHT22;37713;53.254;6.460;2023-04-24T12:37:46;10.90;99.90
51637;DHT22;37713;53.254;6.460;2023-04-24T12:40:12;10.90;99.90
51637;DHT22;37713;53.254;6.460;2023-04-24T12:42:47;10.80;99.90
51637;DHT22;37713;53.254;6.460;2023-04-24T12:45:14;10.70;99.90
51637;DHT22;37713;53.254;6.460;2023-04-24T12:47:41;10.60;99.90
51637;DHT22;37713;53.254;6.460;2023-04-24T12:50:08;10.60;99.90
51637;DHT22;37713;53.254;6.460;2023-04-24T12:52:34;10.40;99.90
51637;DHT22;37713;53.254;6.460;2023-04-24T12:55:00;10.20;99.90
51637;DHT22;37713;53.254;6.460;2023-04-24T12:57:29;10.10;99.90
51637;DHT22;37713;53.254;6.460;2023-04-24T12:59:57;10.00;99.90
51637;DHT22;37713;53.254;6.460;2023-04-24T13:02:24;9.90;99.90
51637;DHT22;37713;53.254;6.460;2023-04-24T13:04:50;9.80;99.90
51637;DHT22;37713;53.254;6.460;2023-04-24T13:07:17;9.80;99.90
51637;DHT22;37713;53.254;6.460;2023-04-24T13:09:44;9.80;99.90
51637;DHT22;37713;53.254;6.460;2023-04-24T13:12:11;9.80;99.90
51637;DHT22;37713;53.254;6.460;2023-04-24T13:14:37;9.70;99.90
51637;DHT22;37713;53.254;6.460;2023-04-24T13:17:04;9.60;99.90
51637;DHT22;37713;53.254;6.460;2023-04-24T13:19:34;9.60;99.90
51637;DHT22;37713;53.254;6.460;2023-04-24T13:22:00;9.70;99.90
51637;DHT22;37713;53.254;6.460;2023-04-24T13:24:26;9.80;99.90
51637;DHT22;37713;53.254;6.460;2023-04-24T13:26:52;9.90;99.90
51637;DHT22;37713;53.254;6.460;2023-04-24T13:29:18;10.00;99.90
51637;DHT22;37713;53.254;6.460;2023-04-24T13:31:45;10.00;99.90
51637;DHT22;37713;53.254;6.460;2023-04-24T13:34:12;10.00;99.90
51637;DHT22;37713;53.254;6.460;2023-04-24T13:36:38;10.00;99.90
51637;DHT22;37713;53.254;6.460;2023-04-24T13:39:05;10.10;99.90
51637;DHT22;37713;53.254;6.460;2023-04-24T13:41:33;10.20;99.90
51637;DHT22;37713;53.254;6.460;2023-04-24T13:43:58;10.30;99.90
51637;DHT22;37713;53.254;6.460;2023-04-24T13:46:26;10.20;99.90
51637;DHT22;37713;53.254;6.460;2023-04-24T13:48:51;10.10;99.90
51637;DHT22;37713;53.254;6.460;2023-04-24T13:51:18;10.00;99.90
51637;DHT22;37713;53.254;6.460;2023-04-24T13:53:43;9.90;99.90
51637;DHT22;37713;53.254;6.460;2023-04-24T13:56:10;9.70;99.90
51637;DHT22;37713;53.254;6.460;2023-04-24T13:58:38;9.60;99.90
51637;DHT22;37713;53.254;6.460;2023-04-24T14:01:04;9.40;99.90
51637;DHT22;37713;53.254;6.460;2023-04-24T14:03:30;9.40;99.90
51637;DHT22;37713;53.254;6.460;2023-04-24T14:05:56;9.30;99.90
51637;DHT22;37713;53.254;6.460;2023-04-24T14:08:22;9.30;99.90
51637;DHT22;37713;53.254;6.460;2023-04-24T14:10:47;9.30;99.90
51637;DHT22;37713;53.254;6.460;2023-04-24T14:13:13;9.40;99.90
51637;DHT22;37713;53.254;6.460;2023-04-24T14:15:39;9.30;99.90
51637;DHT22;37713;53.254;6.460;2023-04-24T14:18:05;9.30;99.90
51637;DHT22;37713;53.254;6.460;2023-04-24T14:20:31;9.20;99.90
51637;DHT22;37713;53.254;6.460;2023-04-24T14:22:57;9.20;99.90
51637;DHT22;37713;53.254;6.460;2023-04-24T14:25:26;9.20;99.90
51637;DHT22;37713;53.254;6.460;2023-04-24T14:27:52;9.20;99.90
51637;DHT22;37713;53.254;6.460;2023-04-24T14:30:18;9.20;99.90
51637;DHT22;37713;53.254;6.460;2023-04-24T14:32:44;9.20;99.90
51637;DHT22;37713;53.254;6.460;2023-04-24T14:35:10;9.20;99.90
51637;DHT22;37713;53.254;6.460;2023-04-24T14:37:36;9.20;99.90
51637;DHT22;37713;53.254;6.460;2023-04-24T14:40:03;9.20;99.90
51637;DHT22;37713;53.254;6.460;2023-04-24T14:42:30;9.20;99.90
51637;DHT22;37713;53.254;6.460;2023-04-24T14:44:56;9.30;99.90
51637;DHT22;37713;53.254;6.460;2023-04-24T14:47:22;9.30;99.90
51637;DHT22;37713;53.254;6.460;2023-04-24T14:49:48;9.30;99.90
51637;DHT22;37713;53.254;6.460;2023-04-24T14:52:14;9.30;99.90
51637;DHT22;37713;53.254;6.460;2023-04-24T14:54:42;9.20;99.90
51637;DHT22;37713;53.254;6.460;2023-04-24T14:57:08;9.10;99.90
51637;DHT22;37713;53.254;6.460;2023-04-24T14:59:33;9.10;99.90
51637;DHT22;37713;53.254;6.460;2023-04-24T15:02:00;9.10;99.90
51637;DHT22;37713;53.254;6.460;2023-04-24T15:04:27;9.10;99.90
51637;DHT22;37713;53.254;6.460;2023-04-24T15:06:54;9.20;99.90
51637;DHT22;37713;53.254;6.460;2023-04-24T15:09:21;9.20;99.90
51637;DHT22;37713;53.254;6.460;2023-04-24T15:11:48;9.20;99.90
51637;DHT22;37713;53.254;6.460;2023-04-24T15:14:14;9.20;99.90
51637;DHT22;37713;53.254;6.460;2023-04-24T15:16:40;9.20;99.90
51637;DHT22;37713;53.254;6.460;2023-04-24T15:19:09;9.20;99.90
51637;DHT22;37713;53.254;6.460;2023-04-24T15:21:37;9.20;99.90
51637;DHT22;37713;53.254;6.460;2023-04-24T15:24:12;9.20;99.90
51637;DHT22;37713;53.254;6.460;2023-04-24T15:26:37;9.30;99.90
51637;DHT22;37713;53.254;6.460;2023-04-24T15:29:03;9.40;99.90
51637;DHT22;37713;53.254;6.460;2023-04-24T15:31:29;9.40;99.90
51637;DHT22;37713;53.254;6.460;2023-04-24T15:33:55;9.40;99.90
51637;DHT22;37713;53.254;6.460;2023-04-24T15:36:21;9.40;99.90
51637;DHT22;37713;53.254;6.460;2023-04-24T15:38:46;9.50;99.90
51637;DHT22;37713;53.254;6.460;2023-04-24T15:41:15;9.40;99.90
51637;DHT22;37713;53.254;6.460;2023-04-24T15:43:43;9.30;99.90
51637;DHT22;37713;53.254;6.460;2023-04-24T15:46:09;9.10;99.90
51637;DHT22;37713;53.254;6.460;2023-04-24T15:48:36;9.00;99.90